Las Vegas, Nevada
Traffic Map
Current Weather Conditions
Las Vegas, Nevada
Scattered Clouds
Scattered Clouds
17°
Feels Like: 17°
Wind Chill: 17° Ceiling: Unl
Heat Index: 17° Visibility: 10mi
Dew Point: -4° Wind: 10mph
Humidity: 23% Direction: 150° (SSE)
Pressure: 29.53in Gusts: 0mph
Raw Report DataKLAS 280156Z 15009KT 10SM SCT100 SCT200 17/M04 A2953 RMK AO2 SLP991 T01721044
Traffic Incident Summary
Active as of:
Severity:
Category:
InformationThere was an issue retrieving the traffic information for this location. Please try a different location or try again shortly.
Advertisements
Track Severe Weather on mobile